Time;durP1;ratioP1;P1;durP2;ratioP2;P2;SDS_P1;SDS_P2;PMS_P1;PMS_P2;Temp;Humidity;BMP_temperature;BMP_pressure;BME280_temperature;BME280_humidity;BME280_pressure;Samples;Min_cycle;Max_cycle;Signal;HPM_P1;HPM_P2
2022/05/13 00:01:20;;;;;;;1.00;1.00;;;;;;;;;;5058632;28;20297;-84
2022/05/13 00:03:48;;;;;;;1.88;1.05;;;;;;;;;;5057644;28;20288;-83
2022/05/13 00:06:15;;;;;;;1.25;1.15;;;;;;;;;;5058406;28;20244;-84
2022/05/13 00:08:42;;;;;;;2.00;1.58;;;;;;;;;;5057205;28;20767;-83
2022/05/13 00:11:26;;;;;;;1.23;1.20;;;;;;;;;;5058896;28;20213;-85
2022/05/13 00:13:54;;;;;;;2.63;1.25;;;;;;;;;;5058152;28;20185;-84
2022/05/13 00:16:23;;;;;;;1.10;1.10;;;;;;;;;;5059104;28;20200;-84
2022/05/13 00:18:50;;;;;;;1.52;1.23;;;;;;;;;;5057953;28;20598;-85
2022/05/13 00:21:18;;;;;;;1.13;1.13;;;;;;;;;;5058592;28;20205;-84
2022/05/13 00:23:45;;;;;;;5.10;1.40;;;;;;;;;;5058022;28;20216;-84
2022/05/13 00:26:12;;;;;;;2.03;1.13;;;;;;;;;;5058098;28;20248;-85
2022/05/13 00:28:40;;;;;;;3.70;1.52;;;;;;;;;;5058009;28;20222;-83
2022/05/13 00:31:07;;;;;;;1.10;1.00;;;;;;;;;;5058484;28;20202;-83
2022/05/13 00:33:36;;;;;;;1.50;1.40;;;;;;;;;;5057980;28;20666;-83
2022/05/13 00:36:04;;;;;;;2.13;1.30;;;;;;;;;;5058122;28;20269;-84
2022/05/13 00:38:32;;;;;;;1.08;1.08;;;;;;;;;;5057883;28;20206;-83
2022/05/13 00:41:00;;;;;;;2.70;1.50;;;;;;;;;;5058320;28;20289;-84
2022/05/13 00:43:47;;;;;;;2.20;1.30;;;;;;;;;;5057333;28;20206;-83
2022/05/13 00:46:15;;;;;;;0.98;0.98;;;;;;;;;;5058068;28;20209;-85
2022/05/13 00:48:45;;;;;;;1.65;1.20;;;;;;;;;;5057587;28;20244;-85
2022/05/13 00:51:16;;;;;;;1.20;1.10;;;;;;;;;;5057597;28;20198;-83
2022/05/13 00:53:43;;;;;;;2.17;1.23;;;;;;;;;;5056558;28;20201;-83
2022/05/13 00:56:11;;;;;;;1.45;1.35;;;;;;;;;;5056200;28;20678;-87
2022/05/13 00:58:42;;;;;;;1.27;1.10;;;;;;;;;;5060928;28;20223;-84
2022/05/13 01:01:09;;;;;;;1.38;1.27;;;;;;;;;;5061856;28;20186;-85
2022/05/13 01:03:38;;;;;;;1.05;0.95;;;;;;;;;;5059744;28;20202;-85
2022/05/13 01:06:12;;;;;;;1.30;1.00;;;;;;;;;;5061299;28;20223;-85
2022/05/13 01:08:40;;;;;;;1.90;1.02;;;;;;;;;;5059176;28;20260;-85
2022/05/13 01:11:12;;;;;;;1.50;1.40;;;;;;;;;;5057938;28;20251;-84
2022/05/13 01:13:39;;;;;;;1.73;1.30;;;;;;;;;;5057745;28;20251;-85
2022/05/13 01:16:07;;;;;;;1.23;1.13;;;;;;;;;;5058692;28;20202;-84
2022/05/13 01:18:36;;;;;;;1.63;1.27;;;;;;;;;;5058339;28;20205;-84
2022/05/13 01:21:08;;;;;;;1.13;1.02;;;;;;;;;;5059221;28;20206;-85
2022/05/13 01:23:41;;;;;;;1.55;1.10;;;;;;;;;;5056022;28;20205;-84
2022/05/13 01:26:12;;;;;;;1.38;1.27;;;;;;;;;;5058895;28;20206;-84
2022/05/13 01:28:42;;;;;;;1.05;1.05;;;;;;;;;;5059598;28;20291;-85
2022/05/13 01:31:13;;;;;;;1.20;1.20;;;;;;;;;;5060696;28;20588;-85
2022/05/13 01:33:42;;;;;;;1.52;1.42;;;;;;;;;;5058618;28;20202;-84
2022/05/13 01:36:12;;;;;;;1.77;1.45;;;;;;;;;;5060127;28;20224;-85
2022/05/13 01:38:42;;;;;;;1.85;1.75;;;;;;;;;;5059165;28;20218;-84
2022/05/13 01:41:12;;;;;;;1.45;1.23;;;;;;;;;;5058752;28;20174;-85
2022/05/13 01:43:42;;;;;;;1.00;1.00;;;;;;;;;;5058236;28;20280;-85
2022/05/13 01:46:10;;;;;;;1.10;1.00;;;;;;;;;;5058424;28;20736;-83
2022/05/13 01:48:37;;;;;;;1.98;0.90;;;;;;;;;;5058831;28;20222;-84
2022/05/13 01:51:05;;;;;;;0.75;0.75;;;;;;;;;;5059249;28;20205;-84
2022/05/13 01:53:33;;;;;;;0.95;0.95;;;;;;;;;;5058635;28;20193;-84
2022/05/13 01:56:02;;;;;;;2.00;1.88;;;;;;;;;;5059506;28;20205;-85
2022/05/13 01:58:29;;;;;;;1.42;1.33;;;;;;;;;;5059048;28;20205;-83
2022/05/13 02:00:59;;;;;;;1.88;1.42;;;;;;;;;;5057878;28;20673;-84
2022/05/13 02:03:46;;;;;;;2.35;1.20;;;;;;;;;;5056942;28;20658;-85
2022/05/13 02:06:15;;;;;;;1.30;1.20;;;;;;;;;;5056756;28;20245;-84
2022/05/13 02:08:43;;;;;;;1.33;1.13;;;;;;;;;;5057602;28;20233;-84
2022/05/13 02:11:13;;;;;;;1.75;1.25;;;;;;;;;;5056729;28;20194;-85
2022/05/13 02:13:41;;;;;;;1.40;1.30;;;;;;;;;;5056360;28;20225;-83
2022/05/13 02:16:08;;;;;;;1.38;1.30;;;;;;;;;;5057314;28;20212;-84
2022/05/13 02:18:36;;;;;;;2.28;1.23;;;;;;;;;;5057970;28;20205;-84
2022/05/13 02:21:03;;;;;;;1.70;1.60;;;;;;;;;;5057752;28;20205;-84
2022/05/13 02:23:30;;;;;;;1.05;1.00;;;;;;;;;;5056713;28;20224;-85
2022/05/13 02:26:04;;;;;;;1.30;1.20;;;;;;;;;;5056847;28;20548;-85
2022/05/13 02:28:34;;;;;;;1.75;1.30;;;;;;;;;;5057059;28;20198;-84
2022/05/13 02:31:01;;;;;;;1.42;1.15;;;;;;;;;;5056982;28;20194;-84
2022/05/13 02:33:30;;;;;;;1.88;1.40;;;;;;;;;;5057826;28;20204;-84
2022/05/13 02:35:59;;;;;;;4.03;2.35;;;;;;;;;;5058359;28;20194;-85
2022/05/13 02:38:27;;;;;;;3.47;1.40;;;;;;;;;;5057435;28;20275;-83
2022/05/13 02:41:12;;;;;;;1.65;1.55;;;;;;;;;;5057273;28;20194;-84
2022/05/13 02:43:42;;;;;;;1.83;1.60;;;;;;;;;;5056835;28;20631;-83
2022/05/13 02:46:10;;;;;;;2.10;1.48;;;;;;;;;;5057516;28;20201;-84
2022/05/13 02:48:38;;;;;;;2.95;1.73;;;;;;;;;;5058060;28;20222;-83
2022/05/13 02:51:06;;;;;;;2.03;1.92;;;;;;;;;;5059049;28;20209;-84
2022/05/13 02:53:33;;;;;;;4.45;2.38;;;;;;;;;;5057927;28;20209;-84
2022/05/13 02:56:00;;;;;;;1.75;1.63;;;;;;;;;;5058118;28;20666;-84
2022/05/13 02:58:28;;;;;;;2.05;1.85;;;;;;;;;;5057941;28;20198;-84
2022/05/13 03:00:56;;;;;;;2.15;1.83;;;;;;;;;;5060143;28;20699;-84
2022/05/13 03:03:24;;;;;;;1.67;1.58;;;;;;;;;;5060270;28;20198;-84
2022/05/13 03:05:51;;;;;;;1.45;1.35;;;;;;;;;;5059126;28;20209;-83
2022/05/13 03:08:19;;;;;;;1.40;1.30;;;;;;;;;;5058641;28;20225;-83
2022/05/13 03:10:46;;;;;;;2.65;2.08;;;;;;;;;;5059131;28;20206;-83
2022/05/13 03:13:18;;;;;;;2.40;1.88;;;;;;;;;;5058654;28;20274;-84
2022/05/13 03:15:45;;;;;;;4.88;3.13;;;;;;;;;;5058733;28;20185;-83
2022/05/13 03:18:14;;;;;;;3.75;2.72;;;;;;;;;;5058763;28;20202;-83
2022/05/13 03:20:42;;;;;;;2.33;2.13;;;;;;;;;;5058071;28;20936;-83
2022/05/13 03:23:09;;;;;;;1.98;1.75;;;;;;;;;;5058493;28;20259;-83
2022/05/13 03:25:37;;;;;;;1.90;1.80;;;;;;;;;;5057860;28;20206;-84
2022/05/13 03:28:05;;;;;;;2.67;1.85;;;;;;;;;;5058279;28;20701;-84
2022/05/13 03:30:32;;;;;;;2.90;2.70;;;;;;;;;;5059368;28;20209;-84
2022/05/13 03:33:00;;;;;;;3.38;2.40;;;;;;;;;;5057854;28;20210;-83
2022/05/13 03:35:29;;;;;;;3.00;2.53;;;;;;;;;;5059768;28;20204;-85
2022/05/13 03:37:59;;;;;;;2.42;2.22;;;;;;;;;;5061064;28;20218;-86
2022/05/13 03:40:26;;;;;;;3.88;2.00;;;;;;;;;;5060351;28;20248;-84
2022/05/13 03:42:54;;;;;;;1.88;1.77;;;;;;;;;;5058991;28;20564;-85
2022/05/13 03:45:21;;;;;;;2.42;2.22;;;;;;;;;;5060657;28;20197;-84
2022/05/13 03:47:49;;;;;;;2.25;2.05;;;;;;;;;;5060338;28;20735;-84
2022/05/13 03:50:17;;;;;;;2.47;2.33;;;;;;;;;;5060102;28;20233;-83
2022/05/13 03:52:45;;;;;;;3.53;2.17;;;;;;;;;;5058549;28;20202;-84
2022/05/13 03:55:13;;;;;;;2.38;2.08;;;;;;;;;;5058525;28;20301;-84
2022/05/13 03:57:41;;;;;;;2.53;2.13;;;;;;;;;;5058567;28;20198;-83
2022/05/13 04:00:11;;;;;;;4.03;1.98;;;;;;;;;;5058376;28;20711;-84
2022/05/13 04:02:39;;;;;;;1.70;1.60;;;;;;;;;;5059599;28;20198;-84
2022/05/13 04:10:40;;;;;;;2.03;1.80;;;;;;;;;;5060125;28;20216;-84
2022/05/13 04:18:38;;;;;;;1.45;1.35;;;;;;;;;;5058670;28;20200;-84
2022/05/13 04:21:08;;;;;;;2.75;1.85;;;;;;;;;;5060482;28;20202;-84
2022/05/13 04:23:41;;;;;;;2.40;1.70;;;;;;;;;;5056002;28;20220;-85
2022/05/13 04:26:12;;;;;;;1.85;1.75;;;;;;;;;;5059102;28;20205;-83
2022/05/13 04:28:39;;;;;;;1.50;1.40;;;;;;;;;;5059364;28;20236;-84
2022/05/13 04:31:07;;;;;;;1.55;1.33;;;;;;;;;;5060397;28;20206;-84
2022/05/13 04:33:35;;;;;;;1.50;1.40;;;;;;;;;;5058945;28;20202;-85
2022/05/13 04:36:02;;;;;;;1.13;1.02;;;;;;;;;;5059681;28;20201;-84
2022/05/13 04:38:29;;;;;;;1.83;1.73;;;;;;;;;;5059524;28;20692;-83
2022/05/13 04:42:49;;;;;;;2.05;1.88;;;;;;;;;;5058907;28;20206;-84
2022/05/13 04:43:45;;;;;;;2.15;1.98;;;;;;;;;;5056523;28;20698;-86
2022/05/13 04:46:12;;;;;;;2.20;2.10;;;;;;;;;;5060304;28;20198;-84
2022/05/13 04:48:39;;;;;;;2.47;2.20;;;;;;;;;;5059540;28;20230;-84
2022/05/13 04:51:07;;;;;;;1.98;1.67;;;;;;;;;;5058413;28;20202;-84
2022/05/13 04:53:36;;;;;;;2.30;2.15;;;;;;;;;;5059951;28;20209;-84
2022/05/13 04:56:09;;;;;;;2.03;1.85;;;;;;;;;;5059836;28;20206;-84
2022/05/13 04:58:36;;;;;;;3.22;2.72;;;;;;;;;;5060018;28;20200;-84
2022/05/13 05:01:05;;;;;;;2.05;1.95;;;;;;;;;;5059519;28;20197;-85
2022/05/13 05:03:35;;;;;;;2.40;2.20;;;;;;;;;;5059337;28;20620;-85
2022/05/13 05:06:04;;;;;;;4.30;3.13;;;;;;;;;;5059680;28;20214;-84
2022/05/13 05:08:33;;;;;;;2.78;2.58;;;;;;;;;;5060389;28;20572;-83
2022/05/13 05:11:02;;;;;;;2.17;2.00;;;;;;;;;;5059810;28;20227;-84
2022/05/13 05:13:34;;;;;;;2.58;2.30;;;;;;;;;;5058987;28;20227;-84
2022/05/13 05:16:02;;;;;;;2.00;1.90;;;;;;;;;;5058262;28;20205;-84
2022/05/13 05:18:31;;;;;;;2.30;2.10;;;;;;;;;;5055282;28;20202;-77
2022/05/13 05:20:59;;;;;;;2.60;2.40;;;;;;;;;;5052680;28;20654;-78
2022/05/13 05:23:29;;;;;;;2.55;2.10;;;;;;;;;;5051256;28;20221;-78
2022/05/13 05:25:57;;;;;;;2.63;2.42;;;;;;;;;;5052287;28;20198;-78
2022/05/13 05:28:26;;;;;;;3.85;3.38;;;;;;;;;;5051923;28;20222;-78
2022/05/13 05:30:55;;;;;;;2.28;2.08;;;;;;;;;;5052145;28;20201;-78
2022/05/13 05:33:22;;;;;;;2.83;2.10;;;;;;;;;;5051830;28;20202;-78
2022/05/13 05:35:50;;;;;;;2.58;2.38;;;;;;;;;;5052622;28;20201;-78
2022/05/13 05:38:17;;;;;;;2.45;2.20;;;;;;;;;;5052365;28;20201;-78
2022/05/13 05:40:45;;;;;;;3.22;2.65;;;;;;;;;;5052160;28;20715;-78
2022/05/13 05:43:15;;;;;;;4.07;2.38;;;;;;;;;;5051521;28;20674;-78
2022/05/13 05:45:43;;;;;;;2.85;2.65;;;;;;;;;;5051854;28;20255;-78
2022/05/13 05:48:15;;;;;;;2.28;2.08;;;;;;;;;;5052366;28;20232;-78
2022/05/13 05:50:43;;;;;;;5.28;3.47;;;;;;;;;;5052243;28;20206;-78
2022/05/13 05:53:10;;;;;;;3.22;3.00;;;;;;;;;;5049685;28;20618;-77
2022/05/13 05:58:22;;;;;;;3.08;2.78;;;;;;;;;;5051899;28;20199;-77
2022/05/13 06:00:51;;;;;;;2.53;2.33;;;;;;;;;;5051685;28;20202;-78
2022/05/13 06:03:20;;;;;;;3.05;2.75;;;;;;;;;;5051061;28;20229;-78
2022/05/13 06:05:59;;;;;;;2.97;2.78;;;;;;;;;;5053285;28;20300;-77
2022/05/13 06:08:27;;;;;;;4.13;3.00;;;;;;;;;;5055768;28;20295;-78
2022/05/13 06:10:54;;;;;;;2.50;2.30;;;;;;;;;;5056061;28;20202;-78
2022/05/13 06:13:21;;;;;;;4.70;1.98;;;;;;;;;;5055254;28;20202;-78
2022/05/13 06:15:48;;;;;;;4.18;2.58;;;;;;;;;;5055927;28;20213;-78
2022/05/13 06:18:16;;;;;;;2.50;2.30;;;;;;;;;;5055724;28;20202;-78
2022/05/13 06:20:44;;;;;;;3.13;2.92;;;;;;;;;;5056258;28;20201;-78
2022/05/13 06:23:12;;;;;;;2.20;2.00;;;;;;;;;;5054690;28;20210;-78
2022/05/13 06:25:39;;;;;;;2.22;1.90;;;;;;;;;;5055882;28;20202;-78
2022/05/13 06:28:07;;;;;;;2.45;2.28;;;;;;;;;;5055679;28;20198;-79
2022/05/13 06:30:36;;;;;;;2.20;2.00;;;;;;;;;;5055484;28;20714;-78
2022/05/13 06:33:05;;;;;;;1.90;1.70;;;;;;;;;;5055315;28;20214;-78
2022/05/13 06:35:34;;;;;;;1.67;1.58;;;;;;;;;;5055392;28;20198;-79
2022/05/13 06:38:03;;;;;;;1.70;1.60;;;;;;;;;;5055599;28;20259;-78
2022/05/13 06:40:31;;;;;;;3.70;1.70;;;;;;;;;;5055449;28;20221;-78
2022/05/13 06:42:58;;;;;;;3.45;2.42;;;;;;;;;;5054784;28;20256;-78
2022/05/13 06:45:25;;;;;;;2.20;2.00;;;;;;;;;;5055057;28;20250;-78
2022/05/13 06:47:53;;;;;;;2.60;2.40;;;;;;;;;;5055253;28;20639;-78
2022/05/13 06:50:20;;;;;;;3.58;2.38;;;;;;;;;;5055207;28;20225;-78
2022/05/13 06:52:48;;;;;;;2.70;2.50;;;;;;;;;;5052756;28;20206;-78
2022/05/13 06:55:18;;;;;;;6.32;2.85;;;;;;;;;;5055314;28;20205;-78
2022/05/13 06:57:46;;;;;;;2.78;2.40;;;;;;;;;;5055872;28;20216;-78
2022/05/13 07:00:14;;;;;;;3.72;2.80;;;;;;;;;;5055159;28;20587;-78
2022/05/13 07:02:42;;;;;;;3.33;2.28;;;;;;;;;;5054848;28;20625;-78
2022/05/13 07:05:11;;;;;;;3.65;2.47;;;;;;;;;;5039572;28;20614;-78
2022/05/13 07:07:39;;;;;;;4.68;2.47;;;;;;;;;;5035833;28;20597;-79
2022/05/13 07:10:07;;;;;;;2.67;1.98;;;;;;;;;;5036007;28;20249;-79
2022/05/13 07:12:37;;;;;;;2.40;1.83;;;;;;;;;;5035641;28;20206;-79
2022/05/13 07:15:06;;;;;;;2.60;2.40;;;;;;;;;;5036082;28;20297;-79
2022/05/13 07:17:33;;;;;;;6.25;2.00;;;;;;;;;;5035490;28;20202;-79
2022/05/13 07:20:00;;;;;;;2.25;1.95;;;;;;;;;;5036021;28;20215;-79
2022/05/13 07:22:28;;;;;;;2.17;1.90;;;;;;;;;;5035322;28;20217;-78
2022/05/13 07:24:55;;;;;;;3.45;1.70;;;;;;;;;;5051518;28;20630;-78
2022/05/13 07:27:22;;;;;;;1.90;1.70;;;;;;;;;;5055409;28;20202;-79
2022/05/13 07:29:51;;;;;;;1.95;1.40;;;;;;;;;;5055647;28;20878;-80
2022/05/13 07:32:18;;;;;;;1.33;1.23;;;;;;;;;;5054847;28;20212;-80
2022/05/13 07:34:45;;;;;;;4.75;1.75;;;;;;;;;;5056000;28;20232;-79
2022/05/13 07:37:13;;;;;;;1.50;1.40;;;;;;;;;;5055757;28;20198;-79
2022/05/13 07:42:25;;;;;;;1.98;1.48;;;;;;;;;;5054968;28;20669;-79
2022/05/13 07:44:53;;;;;;;2.10;1.90;;;;;;;;;;5054639;28;20206;-79
2022/05/13 07:47:21;;;;;;;1.83;1.17;;;;;;;;;;5055356;28;20665;-80
2022/05/13 07:49:48;;;;;;;1.83;1.20;;;;;;;;;;5055373;28;20759;-78
2022/05/13 07:52:15;;;;;;;2.45;1.60;;;;;;;;;;5053103;28;20209;-80
2022/05/13 07:54:43;;;;;;;4.93;1.80;;;;;;;;;;5055467;28;20210;-80
2022/05/13 07:57:10;;;;;;;1.80;1.70;;;;;;;;;;5055257;28;20205;-79
2022/05/13 08:02:20;;;;;;;3.03;2.80;;;;;;;;;;5053339;28;20193;-78
2022/05/13 08:04:48;;;;;;;1.90;1.65;;;;;;;;;;5054559;28;20198;-78
2022/05/13 08:07:16;;;;;;;1.65;1.50;;;;;;;;;;5054286;28;20197;-78
2022/05/13 08:09:43;;;;;;;2.47;1.20;;;;;;;;;;5054247;28;20611;-78
2022/05/13 08:12:11;;;;;;;3.38;1.38;;;;;;;;;;5053449;28;20743;-77
2022/05/13 08:14:39;;;;;;;1.13;1.02;;;;;;;;;;5054372;28;20682;-77
2022/05/13 08:17:06;;;;;;;3.75;1.30;;;;;;;;;;5054192;28;20637;-78
2022/05/13 08:19:35;;;;;;;1.20;1.10;;;;;;;;;;5053762;28;20641;-78
2022/05/13 08:22:03;;;;;;;1.92;1.20;;;;;;;;;;5053528;28;20212;-78
2022/05/13 08:24:30;;;;;;;1.40;1.30;;;;;;;;;;5053407;28;20212;-78
2022/05/13 08:26:57;;;;;;;1.45;1.20;;;;;;;;;;5054650;28;20202;-78
2022/05/13 08:29:25;;;;;;;1.30;1.20;;;;;;;;;;5052848;28;20267;-78
2022/05/13 08:31:52;;;;;;;1.58;1.30;;;;;;;;;;5053588;28;20255;-78
2022/05/13 08:34:19;;;;;;;2.40;1.40;;;;;;;;;;5054342;28;20669;-79
2022/05/13 08:36:49;;;;;;;2.55;1.50;;;;;;;;;;5054069;28;20247;-78
2022/05/13 08:39:16;;;;;;;2.95;2.60;;;;;;;;;;5054137;28;20655;-78
2022/05/13 08:42:06;;;;;;;3.55;1.35;;;;;;;;;;5053647;28;20198;-78
2022/05/13 08:44:33;;;;;;;1.63;1.35;;;;;;;;;;5054578;28;20197;-77
2022/05/13 08:47:11;;;;;;;3.95;1.92;;;;;;;;;;5053518;28;20205;-78
2022/05/13 08:49:48;;;;;;;1.65;1.50;;;;;;;;;;5053681;28;20736;-78
2022/05/13 08:55:16;;;;;;;3.33;1.88;;;;;;;;;;5053751;28;20212;-78
2022/05/13 08:57:46;;;;;;;2.97;1.85;;;;;;;;;;5053613;28;20661;-77
2022/05/13 09:00:18;;;;;;;3.40;1.83;;;;;;;;;;5053132;28;20228;-78
2022/05/13 09:02:53;;;;;;;2.33;1.40;;;;;;;;;;5052870;28;20201;-78
2022/05/13 09:05:27;;;;;;;1.85;1.50;;;;;;;;;;5053135;28;20246;-78
2022/05/13 09:07:56;;;;;;;2.50;1.67;;;;;;;;;;5053321;28;20283;-78
2022/05/13 09:10:24;;;;;;;2.72;1.70;;;;;;;;;;5053684;28;20228;-78
2022/05/13 09:13:00;;;;;;;1.65;1.20;;;;;;;;;;5052926;28;20214;-78
2022/05/13 09:15:35;;;;;;;2.47;2.00;;;;;;;;;;5053513;28;20207;-79
2022/05/13 09:18:08;;;;;;;6.30;2.45;;;;;;;;;;5053099;28;20208;-78
2022/05/13 09:20:41;;;;;;;4.40;1.13;;;;;;;;;;5053753;28;20217;-78
2022/05/13 09:23:13;;;;;;;1.48;1.30;;;;;;;;;;5051884;28;20212;-78
2022/05/13 09:26:06;;;;;;;2.42;1.73;;;;;;;;;;5053359;28;20201;-80
2022/05/13 09:28:37;;;;;;;1.70;1.30;;;;;;;;;;5053509;28;20212;-78
2022/05/13 09:31:21;;;;;;;2.00;1.23;;;;;;;;;;5052938;28;20225;-79
2022/05/13 09:33:49;;;;;;;1.90;1.70;;;;;;;;;;5052246;28;20255;-78
2022/05/13 09:36:35;;;;;;;1.33;1.20;;;;;;;;;;5052820;28;20555;-78
2022/05/13 09:39:21;;;;;;;3.58;1.67;;;;;;;;;;5052627;28;21082;-79
2022/05/13 09:41:52;;;;;;;1.50;1.40;;;;;;;;;;5052015;28;20198;-78
2022/05/13 09:44:22;;;;;;;2.55;1.67;;;;;;;;;;5052628;28;20221;-78
2022/05/13 09:46:51;;;;;;;2.45;1.45;;;;;;;;;;5052885;28;20198;-78
2022/05/13 09:49:29;;;;;;;2.65;1.88;;;;;;;;;;5052916;28;20217;-79
2022/05/13 09:51:59;;;;;;;2.22;2.10;;;;;;;;;;5049813;28;20724;-79
2022/05/13 09:54:31;;;;;;;2.40;1.27;;;;;;;;;;5055045;28;20216;-78
2022/05/13 09:57:10;;;;;;;1.55;1.40;;;;;;;;;;5052600;28;20391;-78
2022/05/13 09:59:40;;;;;;;3.03;1.63;;;;;;;;;;5052397;28;20228;-78
2022/05/13 10:02:26;;;;;;;1.52;1.42;;;;;;;;;;5051779;28;20552;-77
2022/05/13 10:04:56;;;;;;;1.27;0.98;;;;;;;;;;5052727;28;20705;-78
2022/05/13 10:07:25;;;;;;;1.88;1.30;;;;;;;;;;5052031;28;20240;-77
2022/05/13 10:15:31;;;;;;;2.25;1.20;;;;;;;;;;5052098;28;20201;-78
2022/05/13 10:18:06;;;;;;;1.48;1.38;;;;;;;;;;5051786;28;20209;-78
2022/05/13 10:20:37;;;;;;;2.70;1.20;;;;;;;;;;5052374;28;20221;-79
2022/05/13 10:23:12;;;;;;;1.65;1.02;;;;;;;;;;5051428;28;20218;-79
2022/05/13 10:25:53;;;;;;;1.85;1.75;;;;;;;;;;5052025;28;20259;-78
2022/05/13 10:28:23;;;;;;;1.33;0.95;;;;;;;;;;5051748;28;20255;-78
2022/05/13 10:30:53;;;;;;;1.40;1.25;;;;;;;;;;5052075;28;20225;-78
2022/05/13 10:33:26;;;;;;;1.52;1.13;;;;;;;;;;5051693;28;20224;-78
2022/05/13 10:35:58;;;;;;;2.28;1.30;;;;;;;;;;5052018;28;20198;-78
2022/05/13 10:38:41;;;;;;;3.17;1.30;;;;;;;;;;5051969;28;20240;-79
2022/05/13 10:41:23;;;;;;;1.50;1.00;;;;;;;;;;5052581;28;20198;-78
2022/05/13 10:43:58;;;;;;;1.50;1.13;;;;;;;;;;5049688;28;20202;-77
2022/05/13 10:46:37;;;;;;;1.52;1.00;;;;;;;;;;5051298;28;20677;-79
2022/05/13 10:49:04;;;;;;;1.00;1.00;;;;;;;;;;5051909;28;20244;-79
2022/05/13 10:51:40;;;;;;;0.70;0.70;;;;;;;;;;5052209;28;20776;-79
2022/05/13 10:54:23;;;;;;;1.73;1.20;;;;;;;;;;5061938;28;20205;-80
2022/05/13 10:56:59;;;;;;;1.25;0.90;;;;;;;;;;5056525;28;20206;-79
2022/05/13 10:59:43;;;;;;;1.48;1.10;;;;;;;;;;5063657;28;20225;-78
2022/05/13 11:03:03;;;;;;;2.05;0.80;;;;;;;;;;5061627;28;20197;-79
2022/05/13 11:05:38;;;;;;;0.70;0.70;;;;;;;;;;5063691;28;20211;-79
2022/05/13 11:08:16;;;;;;;3.10;1.13;;;;;;;;;;5062045;28;20235;-78
2022/05/13 11:10:54;;;;;;;1.35;0.88;;;;;;;;;;5063475;28;20201;-80
2022/05/13 11:13:38;;;;;;;1.77;0.88;;;;;;;;;;5065067;28;20201;-79
2022/05/13 11:16:13;;;;;;;2.65;1.60;;;;;;;;;;5063734;28;20232;-79
2022/05/13 11:18:47;;;;;;;0.90;0.90;;;;;;;;;;5055772;28;20488;-79
2022/05/13 11:21:26;;;;;;;1.88;1.10;;;;;;;;;;5063746;28;20201;-79
2022/05/13 11:26:59;;;;;;;0.77;0.77;;;;;;;;;;5063816;28;20281;-78
2022/05/13 11:29:32;;;;;;;1.63;0.85;;;;;;;;;;5062730;28;20229;-79
2022/05/13 11:32:22;;;;;;;0.80;0.70;;;;;;;;;;5062952;28;20217;-79
2022/05/13 11:35:29;;;;;;;2.20;1.25;;;;;;;;;;5054535;28;20213;-79
2022/05/13 11:38:05;;;;;;;1.02;0.90;;;;;;;;;;5053663;28;20247;-78
2022/05/13 11:40:46;;;;;;;1.30;1.20;;;;;;;;;;5062923;28;20225;-79
2022/05/13 11:43:29;;;;;;;2.38;1.20;;;;;;;;;;5062137;28;20213;-81
2022/05/13 11:46:38;;;;;;;1.10;1.08;;;;;;;;;;5065565;28;20658;-80
2022/05/13 11:49:13;;;;;;;1.23;0.90;;;;;;;;;;5066346;28;20271;-81
2022/05/13 11:51:40;;;;;;;0.80;0.80;;;;;;;;;;5062866;28;20217;-78
2022/05/13 11:54:27;;;;;;;2.33;1.50;;;;;;;;;;5065372;28;20202;-80
2022/05/13 11:57:24;;;;;;;0.70;0.70;;;;;;;;;;5065841;28;20209;-79
2022/05/13 11:59:54;;;;;;;1.52;0.98;;;;;;;;;;5066148;28;20255;-79
2022/05/13 12:02:37;;;;;;;2.15;0.65;;;;;;;;;;5057166;28;20197;-77
2022/05/13 12:05:27;;;;;;;1.05;1.00;;;;;;;;;;5062854;28;20202;-79
2022/05/13 12:08:03;;;;;;;1.77;0.80;;;;;;;;;;5062436;28;20201;-79
2022/05/13 12:10:40;;;;;;;1.45;0.90;;;;;;;;;;5063772;28;20221;-79
2022/05/13 12:13:21;;;;;;;1.05;1.02;;;;;;;;;;5063484;28;20224;-79
2022/05/13 12:16:08;;;;;;;0.85;0.80;;;;;;;;;;5063729;28;20209;-78
2022/05/13 12:18:43;;;;;;;1.10;0.70;;;;;;;;;;5063331;28;21015;-79
2022/05/13 12:21:25;;;;;;;1.27;0.93;;;;;;;;;;5064223;28;20208;-79
2022/05/13 12:23:57;;;;;;;0.85;0.80;;;;;;;;;;5062846;28;20209;-79
2022/05/13 12:26:44;;;;;;;1.00;0.93;;;;;;;;;;5062436;28;20214;-79
2022/05/13 12:29:20;;;;;;;1.65;0.93;;;;;;;;;;5062153;28;20296;-79
2022/05/13 12:32:09;;;;;;;0.93;0.80;;;;;;;;;;5061987;28;20279;-79
2022/05/13 12:37:37;;;;;;;1.65;1.00;;;;;;;;;;5062783;28;20248;-79
2022/05/13 12:40:26;;;;;;;1.27;0.73;;;;;;;;;;5063128;28;20229;-79
2022/05/13 12:43:01;;;;;;;1.75;0.68;;;;;;;;;;5060645;28;20205;-78
2022/05/13 12:45:49;;;;;;;0.63;0.63;;;;;;;;;;5060902;28;20213;-79
2022/05/13 12:48:19;;;;;;;0.70;0.65;;;;;;;;;;5061341;28;20209;-80
2022/05/13 12:50:50;;;;;;;0.90;0.65;;;;;;;;;;5061029;28;20255;-80
2022/05/13 12:53:42;;;;;;;0.77;0.75;;;;;;;;;;5062387;28;20224;-79
2022/05/13 12:56:23;;;;;;;0.70;0.70;;;;;;;;;;5061978;28;20208;-79
2022/05/13 12:59:00;;;;;;;0.75;0.65;;;;;;;;;;5063039;28;20228;-79
2022/05/13 13:01:28;;;;;;;0.63;0.63;;;;;;;;;;5063102;28;20235;-79
2022/05/13 13:03:55;;;;;;;0.85;0.85;;;;;;;;;;5062438;28;20224;-79
2022/05/13 13:06:26;;;;;;;1.08;0.95;;;;;;;;;;5060728;28;20205;-79
2022/05/13 13:08:54;;;;;;;1.40;0.88;;;;;;;;;;5061683;28;20222;-79
2022/05/13 13:11:32;;;;;;;1.05;0.57;;;;;;;;;;5062523;28;20198;-79
2022/05/13 13:14:11;;;;;;;0.65;0.60;;;;;;;;;;5061815;28;20600;-79
2022/05/13 13:16:42;;;;;;;1.77;1.02;;;;;;;;;;5060548;28;20267;-80
2022/05/13 13:19:14;;;;;;;0.80;0.80;;;;;;;;;;5059589;28;20224;-78
2022/05/13 13:21:43;;;;;;;0.70;0.70;;;;;;;;;;5059812;28;20674;-80
2022/05/13 13:24:17;;;;;;;0.80;0.80;;;;;;;;;;5059985;28;20232;-80
2022/05/13 13:26:49;;;;;;;1.08;0.70;;;;;;;;;;5057920;28;20206;-80
2022/05/13 13:29:21;;;;;;;0.88;0.80;;;;;;;;;;5059372;28;20225;-79
2022/05/13 13:31:51;;;;;;;0.63;0.63;;;;;;;;;;5058045;28;20206;-80
2022/05/13 13:34:31;;;;;;;0.60;0.60;;;;;;;;;;5057482;28;20613;-80
2022/05/13 13:37:01;;;;;;;0.60;0.60;;;;;;;;;;5059050;28;20596;-80
2022/05/13 13:39:29;;;;;;;2.45;0.90;;;;;;;;;;5055944;28;20229;-79
2022/05/13 13:42:05;;;;;;;0.70;0.70;;;;;;;;;;5056302;28;20201;-80
2022/05/13 13:44:34;;;;;;;0.63;0.63;;;;;;;;;;5058042;28;20557;-80
2022/05/13 13:47:02;;;;;;;1.60;1.05;;;;;;;;;;5057932;28;20259;-79
2022/05/13 13:49:33;;;;;;;0.80;0.80;;;;;;;;;;5057522;28;20222;-79
2022/05/13 13:52:04;;;;;;;0.90;0.90;;;;;;;;;;5054565;28;20201;-79
2022/05/13 13:54:38;;;;;;;1.25;0.90;;;;;;;;;;5057459;28;20228;-80
2022/05/13 13:57:26;;;;;;;1.38;1.10;;;;;;;;;;5056960;28;20201;-79
2022/05/13 14:00:06;;;;;;;0.95;0.85;;;;;;;;;;5058193;28;20226;-79
2022/05/13 14:02:37;;;;;;;0.80;0.80;;;;;;;;;;5056234;28;20256;-80
2022/05/13 14:05:08;;;;;;;0.73;0.70;;;;;;;;;;5057818;28;20205;-79
2022/05/13 14:07:39;;;;;;;1.60;0.90;;;;;;;;;;5056597;28;20259;-79
2022/05/13 14:10:09;;;;;;;0.85;0.80;;;;;;;;;;5057977;28;20237;-79
2022/05/13 14:12:38;;;;;;;0.98;0.80;;;;;;;;;;5055544;28;20205;-79
2022/05/13 14:15:13;;;;;;;0.93;0.93;;;;;;;;;;5056484;28;20202;-79
2022/05/13 14:17:41;;;;;;;1.30;1.00;;;;;;;;;;5056643;28;20673;-80
2022/05/13 14:20:14;;;;;;;0.60;0.60;;;;;;;;;;5057398;28;20217;-79
2022/05/13 14:23:11;;;;;;;0.80;0.80;;;;;;;;;;5057027;28;20209;-80
2022/05/13 14:25:41;;;;;;;2.08;0.82;;;;;;;;;;5058041;28;20673;-80
2022/05/13 14:28:11;;;;;;;1.73;1.00;;;;;;;;;;5059493;28;20201;-79
2022/05/13 14:30:43;;;;;;;1.33;1.23;;;;;;;;;;5060331;28;20222;-80
2022/05/13 14:33:11;;;;;;;0.60;0.60;;;;;;;;;;5059740;28;20767;-80
2022/05/13 14:35:38;;;;;;;1.80;0.90;;;;;;;;;;5060596;28;20201;-80
2022/05/13 14:38:10;;;;;;;1.10;0.95;;;;;;;;;;5060022;28;20205;-79
2022/05/13 14:40:43;;;;;;;1.52;0.80;;;;;;;;;;5061213;28;20241;-79
2022/05/13 14:43:15;;;;;;;0.63;0.63;;;;;;;;;;5060962;28;20197;-80
2022/05/13 14:45:44;;;;;;;0.90;0.60;;;;;;;;;;5058937;28;20205;-79
2022/05/13 14:48:18;;;;;;;0.73;0.73;;;;;;;;;;5059924;28;20205;-80
2022/05/13 14:50:48;;;;;;;0.73;0.70;;;;;;;;;;5058987;28;20209;-80
2022/05/13 14:53:19;;;;;;;1.20;1.10;;;;;;;;;;5058712;28;20225;-79
2022/05/13 14:55:51;;;;;;;0.68;0.60;;;;;;;;;;5061190;28;20213;-80
2022/05/13 14:58:27;;;;;;;0.85;0.70;;;;;;;;;;5059987;28;20232;-79
2022/05/13 15:00:57;;;;;;;0.73;0.73;;;;;;;;;;5060356;28;20205;-79
2022/05/13 15:03:32;;;;;;;0.70;0.70;;;;;;;;;;5058732;28;20255;-80
2022/05/13 15:06:19;;;;;;;0.95;0.95;;;;;;;;;;5059040;28;20205;-80
2022/05/13 15:08:50;;;;;;;0.95;0.95;;;;;;;;;;5059423;28;20221;-79
2022/05/13 15:11:22;;;;;;;1.20;1.08;;;;;;;;;;5060292;28;20206;-79
2022/05/13 15:13:49;;;;;;;1.85;1.00;;;;;;;;;;5059332;28;20321;-79
2022/05/13 15:16:20;;;;;;;0.95;0.90;;;;;;;;;;5058891;28;20221;-80
2022/05/13 15:18:48;;;;;;;0.88;0.88;;;;;;;;;;5060653;28;20226;-79
2022/05/13 15:21:16;;;;;;;1.25;0.90;;;;;;;;;;5059700;28;20202;-81
2022/05/13 15:23:43;;;;;;;0.80;0.70;;;;;;;;;;5058153;28;20205;-79
2022/05/13 15:26:15;;;;;;;1.63;1.20;;;;;;;;;;5058903;28;20197;-80
2022/05/13 15:28:45;;;;;;;1.33;1.10;;;;;;;;;;5059261;28;20229;-80
2022/05/13 15:31:14;;;;;;;1.02;0.95;;;;;;;;;;5060293;28;20247;-79
2022/05/13 15:33:42;;;;;;;1.98;1.88;;;;;;;;;;5057908;28;20694;-80
2022/05/13 15:36:13;;;;;;;1.27;1.17;;;;;;;;;;5058320;28;20233;-80
2022/05/13 15:38:41;;;;;;;2.75;1.20;;;;;;;;;;5059059;28;20221;-79
2022/05/13 15:41:08;;;;;;;1.65;0.80;;;;;;;;;;5059799;28;20201;-79
2022/05/13 15:43:36;;;;;;;1.17;1.00;;;;;;;;;;5059360;28;20205;-80